sensor_id;sensor_type;location;lat;lon;timestamp;P1;durP1;ratioP1;P2;durP2;ratioP2
40204;SDS011;26963;42.666;23.366;2022-11-15T00:01:14;57.40;;;39.55;;
40204;SDS011;26963;42.666;23.366;2022-11-15T00:03:42;57.95;;;40.40;;
40204;SDS011;26963;42.666;23.366;2022-11-15T00:06:08;58.15;;;38.45;;
40204;SDS011;26963;42.666;23.366;2022-11-15T00:08:34;58.83;;;40.35;;
40204;SDS011;26963;42.666;23.366;2022-11-15T00:11:00;56.05;;;41.05;;
40204;SDS011;26963;42.666;23.366;2022-11-15T00:13:27;54.42;;;38.92;;
40204;SDS011;26963;42.666;23.366;2022-11-15T00:15:56;56.90;;;39.20;;
40204;SDS011;26963;42.666;23.366;2022-11-15T00:18:22;49.80;;;36.45;;
40204;SDS011;26963;42.666;23.366;2022-11-15T00:20:47;56.50;;;40.03;;
40204;SDS011;26963;42.666;23.366;2022-11-15T00:23:13;58.45;;;39.95;;
40204;SDS011;26963;42.666;23.366;2022-11-15T00:25:38;54.40;;;37.70;;
40204;SDS011;26963;42.666;23.366;2022-11-15T00:28:04;60.17;;;39.28;;
40204;SDS011;26963;42.666;23.366;2022-11-15T00:30:30;56.17;;;37.05;;
40204;SDS011;26963;42.666;23.366;2022-11-15T00:32:56;55.58;;;39.08;;
40204;SDS011;26963;42.666;23.366;2022-11-15T00:35:21;57.92;;;38.50;;
40204;SDS011;26963;42.666;23.366;2022-11-15T00:37:47;48.72;;;34.83;;
40204;SDS011;26963;42.666;23.366;2022-11-15T00:40:13;52.63;;;37.42;;
40204;SDS011;26963;42.666;23.366;2022-11-15T00:42:39;54.55;;;39.95;;
40204;SDS011;26963;42.666;23.366;2022-11-15T00:45:05;59.65;;;41.85;;
40204;SDS011;26963;42.666;23.366;2022-11-15T00:47:31;60.67;;;40.60;;
40204;SDS011;26963;42.666;23.366;2022-11-15T00:49:57;61.13;;;42.78;;
40204;SDS011;26963;42.666;23.366;2022-11-15T00:52:22;63.72;;;41.80;;
40204;SDS011;26963;42.666;23.366;2022-11-15T00:54:48;58.80;;;40.55;;
40204;SDS011;26963;42.666;23.366;2022-11-15T00:57:13;54.45;;;36.63;;
40204;SDS011;26963;42.666;23.366;2022-11-15T00:59:39;51.83;;;36.53;;
40204;SDS011;26963;42.666;23.366;2022-11-15T01:02:05;57.90;;;39.67;;
40204;SDS011;26963;42.666;23.366;2022-11-15T01:04:30;60.70;;;43.00;;
40204;SDS011;26963;42.666;23.366;2022-11-15T01:06:55;64.72;;;43.47;;
40204;SDS011;26963;42.666;23.366;2022-11-15T01:09:21;66.65;;;42.78;;
40204;SDS011;26963;42.666;23.366;2022-11-15T01:11:47;64.15;;;41.08;;
40204;SDS011;26963;42.666;23.366;2022-11-15T01:14:12;55.17;;;38.25;;
40204;SDS011;26963;42.666;23.366;2022-11-15T01:16:38;67.55;;;40.95;;
40204;SDS011;26963;42.666;23.366;2022-11-15T01:19:04;59.42;;;39.20;;
40204;SDS011;26963;42.666;23.366;2022-11-15T01:21:29;58.35;;;37.97;;
40204;SDS011;26963;42.666;23.366;2022-11-15T01:23:55;58.30;;;39.90;;
40204;SDS011;26963;42.666;23.366;2022-11-15T01:26:22;56.08;;;38.72;;
40204;SDS011;26963;42.666;23.366;2022-11-15T01:28:49;53.95;;;37.55;;
40204;SDS011;26963;42.666;23.366;2022-11-15T01:31:16;52.55;;;36.53;;
40204;SDS011;26963;42.666;23.366;2022-11-15T01:33:43;58.33;;;40.05;;
40204;SDS011;26963;42.666;23.366;2022-11-15T01:36:13;57.83;;;38.38;;
40204;SDS011;26963;42.666;23.366;2022-11-15T01:38:40;58.42;;;40.35;;
40204;SDS011;26963;42.666;23.366;2022-11-15T01:41:06;57.95;;;38.30;;
40204;SDS011;26963;42.666;23.366;2022-11-15T01:43:33;56.10;;;37.10;;
40204;SDS011;26963;42.666;23.366;2022-11-15T01:46:11;52.80;;;36.90;;
40204;SDS011;26963;42.666;23.366;2022-11-15T01:48:42;50.45;;;35.25;;
40204;SDS011;26963;42.666;23.366;2022-11-15T01:51:09;51.40;;;36.72;;
40204;SDS011;26963;42.666;23.366;2022-11-15T01:53:39;57.00;;;38.08;;
40204;SDS011;26963;42.666;23.366;2022-11-15T01:56:08;55.97;;;38.15;;
40204;SDS011;26963;42.666;23.366;2022-11-15T01:58:37;64.70;;;40.45;;
40204;SDS011;26963;42.666;23.366;2022-11-15T02:01:05;55.17;;;38.13;;
40204;SDS011;26963;42.666;23.366;2022-11-15T02:03:36;57.83;;;38.50;;
40204;SDS011;26963;42.666;23.366;2022-11-15T02:06:14;50.38;;;36.17;;
40204;SDS011;26963;42.666;23.366;2022-11-15T02:08:40;59.67;;;38.60;;
40204;SDS011;26963;42.666;23.366;2022-11-15T02:11:09;54.42;;;36.50;;
40204;SDS011;26963;42.666;23.366;2022-11-15T02:13:36;57.65;;;37.05;;
40204;SDS011;26963;42.666;23.366;2022-11-15T02:30:33;52.88;;;33.90;;
40204;SDS011;26963;42.666;23.366;2022-11-15T02:33:25;47.97;;;33.33;;
40204;SDS011;26963;42.666;23.366;2022-11-15T02:36:00;52.92;;;33.38;;
40204;SDS011;26963;42.666;23.366;2022-11-15T02:38:34;55.85;;;36.67;;
40204;SDS011;26963;42.666;23.366;2022-11-15T02:41:04;61.25;;;38.88;;
40204;SDS011;26963;42.666;23.366;2022-11-15T02:43:36;58.03;;;39.13;;
40204;SDS011;26963;42.666;23.366;2022-11-15T02:49:39;54.75;;;35.50;;
40204;SDS011;26963;42.666;23.366;2022-11-15T02:52:07;54.35;;;35.03;;
40204;SDS011;26963;42.666;23.366;2022-11-15T02:54:33;51.85;;;33.58;;
40204;SDS011;26963;42.666;23.366;2022-11-15T02:57:04;53.72;;;34.75;;
40204;SDS011;26963;42.666;23.366;2022-11-15T03:02:18;47.30;;;32.53;;
40204;SDS011;26963;42.666;23.366;2022-11-15T03:10:16;79.13;;;52.97;;
40204;SDS011;26963;42.666;23.366;2022-11-15T03:17:55;56.35;;;37.88;;
40204;SDS011;26963;42.666;23.366;2022-11-15T03:20:25;56.40;;;37.28;;
40204;SDS011;26963;42.666;23.366;2022-11-15T03:22:53;70.65;;;47.33;;
40204;SDS011;26963;42.666;23.366;2022-11-15T03:25:24;66.32;;;44.08;;
40204;SDS011;26963;42.666;23.366;2022-11-15T03:27:53;70.47;;;47.83;;
40204;SDS011;26963;42.666;23.366;2022-11-15T03:30:23;72.20;;;48.15;;
40204;SDS011;26963;42.666;23.366;2022-11-15T03:32:53;71.80;;;48.15;;
40204;SDS011;26963;42.666;23.366;2022-11-15T03:35:22;70.25;;;48.35;;
40204;SDS011;26963;42.666;23.366;2022-11-15T03:43:40;62.33;;;43.30;;
40204;SDS011;26963;42.666;23.366;2022-11-15T03:46:13;56.00;;;40.67;;
40204;SDS011;26963;42.666;23.366;2022-11-15T03:48:43;64.10;;;43.42;;
40204;SDS011;26963;42.666;23.366;2022-11-15T03:51:24;58.83;;;42.55;;
40204;SDS011;26963;42.666;23.366;2022-11-15T03:53:49;62.92;;;43.40;;
40204;SDS011;26963;42.666;23.366;2022-11-15T03:56:15;65.05;;;44.25;;
40204;SDS011;26963;42.666;23.366;2022-11-15T03:58:40;70.07;;;45.58;;
40204;SDS011;26963;42.666;23.366;2022-11-15T04:01:06;70.45;;;46.50;;
40204;SDS011;26963;42.666;23.366;2022-11-15T04:03:32;72.63;;;48.42;;
40204;SDS011;26963;42.666;23.366;2022-11-15T04:05:57;76.10;;;47.55;;
40204;SDS011;26963;42.666;23.366;2022-11-15T04:08:23;73.50;;;48.45;;
40204;SDS011;26963;42.666;23.366;2022-11-15T04:10:49;76.07;;;49.03;;
40204;SDS011;26963;42.666;23.366;2022-11-15T04:13:15;75.03;;;49.40;;
40204;SDS011;26963;42.666;23.366;2022-11-15T04:15:40;67.40;;;45.90;;
40204;SDS011;26963;42.666;23.366;2022-11-15T04:18:06;71.03;;;48.60;;
40204;SDS011;26963;42.666;23.366;2022-11-15T04:20:31;66.95;;;48.05;;
40204;SDS011;26963;42.666;23.366;2022-11-15T04:23:19;69.32;;;48.55;;
40204;SDS011;26963;42.666;23.366;2022-11-15T04:26:11;72.30;;;47.00;;
40204;SDS011;26963;42.666;23.366;2022-11-15T04:28:40;70.95;;;47.80;;
40204;SDS011;26963;42.666;23.366;2022-11-15T04:31:26;68.07;;;48.73;;
40204;SDS011;26963;42.666;23.366;2022-11-15T04:33:52;66.13;;;46.80;;
40204;SDS011;26963;42.666;23.366;2022-11-15T04:36:18;67.70;;;46.90;;
40204;SDS011;26963;42.666;23.366;2022-11-15T04:39:02;62.43;;;44.20;;
40204;SDS011;26963;42.666;23.366;2022-11-15T04:41:28;59.38;;;40.35;;
40204;SDS011;26963;42.666;23.366;2022-11-15T04:43:54;65.07;;;41.50;;
40204;SDS011;26963;42.666;23.366;2022-11-15T04:46:20;61.05;;;41.15;;
40204;SDS011;26963;42.666;23.366;2022-11-15T04:48:46;61.30;;;41.90;;
40204;SDS011;26963;42.666;23.366;2022-11-15T04:51:11;62.40;;;39.60;;
40204;SDS011;26963;42.666;23.366;2022-11-15T04:53:37;62.17;;;41.38;;
40204;SDS011;26963;42.666;23.366;2022-11-15T04:56:03;58.70;;;38.55;;
40204;SDS011;26963;42.666;23.366;2022-11-15T04:58:28;54.90;;;38.58;;
40204;SDS011;26963;42.666;23.366;2022-11-15T05:00:54;56.42;;;38.13;;
40204;SDS011;26963;42.666;23.366;2022-11-15T05:03:19;53.80;;;37.00;;
40204;SDS011;26963;42.666;23.366;2022-11-15T05:06:03;56.78;;;38.40;;
40204;SDS011;26963;42.666;23.366;2022-11-15T05:08:30;58.20;;;38.20;;
40204;SDS011;26963;42.666;23.366;2022-11-15T05:10:55;55.22;;;37.45;;
40204;SDS011;26963;42.666;23.366;2022-11-15T05:13:21;58.75;;;40.40;;
40204;SDS011;26963;42.666;23.366;2022-11-15T05:15:47;60.67;;;39.08;;
40204;SDS011;26963;42.666;23.366;2022-11-15T05:18:12;60.78;;;38.97;;
40204;SDS011;26963;42.666;23.366;2022-11-15T05:20:38;68.22;;;40.45;;
40204;SDS011;26963;42.666;23.366;2022-11-15T05:23:04;67.63;;;40.15;;
40204;SDS011;26963;42.666;23.366;2022-11-15T05:25:30;64.85;;;39.47;;
40204;SDS011;26963;42.666;23.366;2022-11-15T05:27:55;63.63;;;38.53;;
40204;SDS011;26963;42.666;23.366;2022-11-15T05:30:21;64.25;;;38.58;;
40204;SDS011;26963;42.666;23.366;2022-11-15T05:32:46;72.95;;;41.20;;
40204;SDS011;26963;42.666;23.366;2022-11-15T05:35:15;73.15;;;40.55;;
40204;SDS011;26963;42.666;23.366;2022-11-15T05:37:47;71.82;;;41.53;;
40204;SDS011;26963;42.666;23.366;2022-11-15T05:40:13;65.63;;;37.78;;
40204;SDS011;26963;42.666;23.366;2022-11-15T05:42:39;63.00;;;37.70;;
40204;SDS011;26963;42.666;23.366;2022-11-15T05:45:05;66.00;;;38.13;;
40204;SDS011;26963;42.666;23.366;2022-11-15T05:47:32;68.97;;;39.47;;
40204;SDS011;26963;42.666;23.366;2022-11-15T05:50:01;63.60;;;38.75;;
40204;SDS011;26963;42.666;23.366;2022-11-15T05:52:27;61.03;;;37.67;;
40204;SDS011;26963;42.666;23.366;2022-11-15T05:54:58;58.08;;;35.55;;
40204;SDS011;26963;42.666;23.366;2022-11-15T05:57:24;56.17;;;36.50;;
40204;SDS011;26963;42.666;23.366;2022-11-15T05:59:50;53.63;;;33.55;;
40204;SDS011;26963;42.666;23.366;2022-11-15T06:02:16;53.80;;;34.20;;
40204;SDS011;26963;42.666;23.366;2022-11-15T06:04:42;47.50;;;30.92;;
40204;SDS011;26963;42.666;23.366;2022-11-15T06:07:07;45.35;;;28.23;;
40204;SDS011;26963;42.666;23.366;2022-11-15T06:09:33;35.88;;;21.40;;
40204;SDS011;26963;42.666;23.366;2022-11-15T06:11:58;33.75;;;21.13;;
40204;SDS011;26963;42.666;23.366;2022-11-15T06:14:24;32.30;;;21.55;;
40204;SDS011;26963;42.666;23.366;2022-11-15T06:16:49;27.88;;;19.08;;
40204;SDS011;26963;42.666;23.366;2022-11-15T06:19:15;31.48;;;21.05;;
40204;SDS011;26963;42.666;23.366;2022-11-15T06:21:40;36.00;;;22.90;;
40204;SDS011;26963;42.666;23.366;2022-11-15T06:24:06;30.75;;;19.83;;
40204;SDS011;26963;42.666;23.366;2022-11-15T06:26:32;32.63;;;21.88;;
40204;SDS011;26963;42.666;23.366;2022-11-15T06:28:57;31.00;;;21.27;;
40204;SDS011;26963;42.666;23.366;2022-11-15T06:31:23;26.70;;;19.25;;
40204;SDS011;26963;42.666;23.366;2022-11-15T06:33:48;29.95;;;21.33;;
40204;SDS011;26963;42.666;23.366;2022-11-15T06:36:14;30.00;;;20.33;;
40204;SDS011;26963;42.666;23.366;2022-11-15T06:38:42;29.88;;;20.80;;
40204;SDS011;26963;42.666;23.366;2022-11-15T06:41:09;33.40;;;22.73;;
40204;SDS011;26963;42.666;23.366;2022-11-15T06:43:36;30.52;;;21.75;;
40204;SDS011;26963;42.666;23.366;2022-11-15T06:46:02;32.40;;;22.50;;
40204;SDS011;26963;42.666;23.366;2022-11-15T06:48:30;29.67;;;21.92;;
40204;SDS011;26963;42.666;23.366;2022-11-15T06:50:57;34.05;;;23.90;;
40204;SDS011;26963;42.666;23.366;2022-11-15T06:53:25;33.05;;;23.83;;
40204;SDS011;26963;42.666;23.366;2022-11-15T06:55:51;33.65;;;23.95;;
40204;SDS011;26963;42.666;23.366;2022-11-15T06:58:17;34.53;;;25.00;;
40204;SDS011;26963;42.666;23.366;2022-11-15T07:00:42;41.15;;;25.85;;
40204;SDS011;26963;42.666;23.366;2022-11-15T07:03:08;31.95;;;22.30;;
40204;SDS011;26963;42.666;23.366;2022-11-15T07:05:34;35.17;;;23.15;;
40204;SDS011;26963;42.666;23.366;2022-11-15T07:08:00;35.60;;;23.98;;
40204;SDS011;26963;42.666;23.366;2022-11-15T07:10:26;35.30;;;24.52;;
40204;SDS011;26963;42.666;23.366;2022-11-15T07:12:53;31.70;;;22.42;;
40204;SDS011;26963;42.666;23.366;2022-11-15T07:15:20;35.95;;;23.48;;
40204;SDS011;26963;42.666;23.366;2022-11-15T07:17:47;35.10;;;23.50;;
40204;SDS011;26963;42.666;23.366;2022-11-15T07:20:13;35.63;;;23.98;;
40204;SDS011;26963;42.666;23.366;2022-11-15T07:22:39;47.17;;;30.50;;
40204;SDS011;26963;42.666;23.366;2022-11-15T07:25:05;38.70;;;27.13;;
40204;SDS011;26963;42.666;23.366;2022-11-15T07:27:32;40.55;;;27.00;;
40204;SDS011;26963;42.666;23.366;2022-11-15T07:29:57;37.42;;;26.35;;
40204;SDS011;26963;42.666;23.366;2022-11-15T07:32:26;39.03;;;25.17;;
40204;SDS011;26963;42.666;23.366;2022-11-15T07:34:52;36.67;;;26.17;;
40204;SDS011;26963;42.666;23.366;2022-11-15T07:37:17;37.65;;;26.30;;
40204;SDS011;26963;42.666;23.366;2022-11-15T07:39:43;40.75;;;28.83;;
40204;SDS011;26963;42.666;23.366;2022-11-15T07:42:09;46.13;;;29.42;;
40204;SDS011;26963;42.666;23.366;2022-11-15T07:44:53;45.80;;;29.55;;
40204;SDS011;26963;42.666;23.366;2022-11-15T07:47:19;44.35;;;30.38;;
40204;SDS011;26963;42.666;23.366;2022-11-15T07:49:45;45.42;;;29.25;;
40204;SDS011;26963;42.666;23.366;2022-11-15T07:52:11;43.72;;;29.65;;
40204;SDS011;26963;42.666;23.366;2022-11-15T07:54:37;42.17;;;29.30;;
40204;SDS011;26963;42.666;23.366;2022-11-15T07:57:03;41.17;;;28.58;;
40204;SDS011;26963;42.666;23.366;2022-11-15T07:59:29;45.53;;;30.63;;
40204;SDS011;26963;42.666;23.366;2022-11-15T08:01:55;41.83;;;30.77;;
40204;SDS011;26963;42.666;23.366;2022-11-15T08:04:21;45.60;;;31.38;;
40204;SDS011;26963;42.666;23.366;2022-11-15T08:06:47;40.53;;;30.65;;
40204;SDS011;26963;42.666;23.366;2022-11-15T08:09:12;44.75;;;32.10;;
40204;SDS011;26963;42.666;23.366;2022-11-15T08:11:38;48.10;;;32.83;;
40204;SDS011;26963;42.666;23.366;2022-11-15T08:14:03;45.90;;;32.03;;
40204;SDS011;26963;42.666;23.366;2022-11-15T08:16:29;51.55;;;36.20;;
40204;SDS011;26963;42.666;23.366;2022-11-15T08:18:54;50.92;;;35.30;;
40204;SDS011;26963;42.666;23.366;2022-11-15T08:21:20;48.45;;;34.17;;
40204;SDS011;26963;42.666;23.366;2022-11-15T08:23:46;51.20;;;35.45;;
40204;SDS011;26963;42.666;23.366;2022-11-15T08:26:12;52.20;;;36.70;;
40204;SDS011;26963;42.666;23.366;2022-11-15T08:28:37;47.22;;;34.85;;
40204;SDS011;26963;42.666;23.366;2022-11-15T08:31:04;50.45;;;34.63;;
40204;SDS011;26963;42.666;23.366;2022-11-15T08:33:30;50.95;;;34.03;;
40204;SDS011;26963;42.666;23.366;2022-11-15T08:35:58;54.00;;;35.22;;
40204;SDS011;26963;42.666;23.366;2022-11-15T08:38:25;54.58;;;37.10;;
40204;SDS011;26963;42.666;23.366;2022-11-15T08:40:51;54.85;;;37.15;;
40204;SDS011;26963;42.666;23.366;2022-11-15T08:43:18;53.05;;;36.17;;
40204;SDS011;26963;42.666;23.366;2022-11-15T08:45:44;57.30;;;37.78;;
40204;SDS011;26963;42.666;23.366;2022-11-15T08:48:10;52.90;;;37.45;;
40204;SDS011;26963;42.666;23.366;2022-11-15T08:50:35;53.38;;;37.28;;
40204;SDS011;26963;42.666;23.366;2022-11-15T08:53:05;54.30;;;37.90;;
40204;SDS011;26963;42.666;23.366;2022-11-15T08:55:32;57.53;;;39.85;;
40204;SDS011;26963;42.666;23.366;2022-11-15T08:57:58;54.35;;;38.35;;
40204;SDS011;26963;42.666;23.366;2022-11-15T09:00:23;57.00;;;37.70;;
40204;SDS011;26963;42.666;23.366;2022-11-15T09:02:49;56.47;;;41.35;;
40204;SDS011;26963;42.666;23.366;2022-11-15T09:05:14;60.03;;;41.45;;
40204;SDS011;26963;42.666;23.366;2022-11-15T09:07:43;60.13;;;42.17;;
40204;SDS011;26963;42.666;23.366;2022-11-15T09:10:09;59.53;;;42.15;;
40204;SDS011;26963;42.666;23.366;2022-11-15T09:12:35;57.03;;;42.25;;
40204;SDS011;26963;42.666;23.366;2022-11-15T09:15:00;58.92;;;42.65;;
40204;SDS011;26963;42.666;23.366;2022-11-15T09:17:26;62.20;;;42.40;;
40204;SDS011;26963;42.666;23.366;2022-11-15T09:19:51;59.53;;;44.33;;
40204;SDS011;26963;42.666;23.366;2022-11-15T09:22:17;67.15;;;47.22;;
40204;SDS011;26963;42.666;23.366;2022-11-15T09:24:42;69.95;;;47.67;;
40204;SDS011;26963;42.666;23.366;2022-11-15T09:27:08;67.22;;;45.42;;
40204;SDS011;26963;42.666;23.366;2022-11-15T09:29:33;61.10;;;44.90;;
40204;SDS011;26963;42.666;23.366;2022-11-15T09:31:59;60.33;;;42.25;;
40204;SDS011;26963;42.666;23.366;2022-11-15T09:34:24;69.10;;;45.03;;
40204;SDS011;26963;42.666;23.366;2022-11-15T09:36:50;63.05;;;44.38;;
40204;SDS011;26963;42.666;23.366;2022-11-15T09:39:15;64.75;;;43.45;;
40204;SDS011;26963;42.666;23.366;2022-11-15T09:47:46;70.10;;;46.40;;
40204;SDS011;26963;42.666;23.366;2022-11-15T09:50:34;67.22;;;46.90;;
40204;SDS011;26963;42.666;23.366;2022-11-15T09:53:01;71.63;;;45.75;;
40204;SDS011;26963;42.666;23.366;2022-11-15T09:55:32;64.68;;;46.63;;
40204;SDS011;26963;42.666;23.366;2022-11-15T10:01:08;67.78;;;45.75;;
40204;SDS011;26963;42.666;23.366;2022-11-15T10:03:42;70.53;;;45.75;;
40204;SDS011;26963;42.666;23.366;2022-11-15T10:06:29;71.30;;;47.47;;
40204;SDS011;26963;42.666;23.366;2022-11-15T10:11:34;70.95;;;48.35;;
40204;SDS011;26963;42.666;23.366;2022-11-15T10:14:02;70.82;;;47.25;;
40204;SDS011;26963;42.666;23.366;2022-11-15T10:19:28;66.32;;;46.13;;
40204;SDS011;26963;42.666;23.366;2022-11-15T10:24:59;64.75;;;46.67;;
40204;SDS011;26963;42.666;23.366;2022-11-15T10:27:34;71.43;;;48.42;;
40204;SDS011;26963;42.666;23.366;2022-11-15T10:30:01;65.78;;;47.55;;
40204;SDS011;26963;42.666;23.366;2022-11-15T10:32:29;67.53;;;47.92;;
40204;SDS011;26963;42.666;23.366;2022-11-15T10:34:58;69.68;;;48.17;;
40204;SDS011;26963;42.666;23.366;2022-11-15T10:37:28;70.93;;;47.88;;
40204;SDS011;26963;42.666;23.366;2022-11-15T10:40:14;76.95;;;49.33;;
40204;SDS011;26963;42.666;23.366;2022-11-15T10:42:40;73.25;;;50.33;;
40204;SDS011;26963;42.666;23.366;2022-11-15T10:45:39;78.40;;;51.35;;
40204;SDS011;26963;42.666;23.366;2022-11-15T10:50:48;79.72;;;52.53;;
40204;SDS011;26963;42.666;23.366;2022-11-15T10:55:49;78.20;;;50.67;;
40204;SDS011;26963;42.666;23.366;2022-11-15T11:01:27;75.03;;;51.83;;
40204;SDS011;26963;42.666;23.366;2022-11-15T11:04:07;79.45;;;53.67;;
40204;SDS011;26963;42.666;23.366;2022-11-15T11:09:21;77.22;;;51.40;;
40204;SDS011;26963;42.666;23.366;2022-11-15T11:12:04;84.60;;;54.50;;
40204;SDS011;26963;42.666;23.366;2022-11-15T11:14:32;87.82;;;55.53;;
40204;SDS011;26963;42.666;23.366;2022-11-15T11:24:49;77.95;;;50.58;;
40204;SDS011;26963;42.666;23.366;2022-11-15T11:32:57;80.60;;;51.08;;
40204;SDS011;26963;42.666;23.366;2022-11-15T11:43:41;74.45;;;49.60;;
40204;SDS011;26963;42.666;23.366;2022-11-15T11:48:58;80.32;;;50.30;;
40204;SDS011;26963;42.666;23.366;2022-11-15T11:51:49;77.47;;;51.25;;
40204;SDS011;26963;42.666;23.366;2022-11-15T11:57:05;73.90;;;48.47;;
40204;SDS011;26963;42.666;23.366;2022-11-15T11:59:41;76.90;;;49.67;;
40204;SDS011;26963;42.666;23.366;2022-11-15T12:07:52;64.13;;;44.17;;
40204;SDS011;26963;42.666;23.366;2022-11-15T12:10:24;68.22;;;47.03;;
40204;SDS011;26963;42.666;23.366;2022-11-15T12:15:30;64.00;;;45.47;;
40204;SDS011;26963;42.666;23.366;2022-11-15T12:18:00;73.43;;;48.15;;
40204;SDS011;26963;42.666;23.366;2022-11-15T12:20:28;67.38;;;45.55;;
40204;SDS011;26963;42.666;23.366;2022-11-15T12:22:59;65.55;;;45.17;;
40204;SDS011;26963;42.666;23.366;2022-11-15T12:25:44;65.47;;;44.08;;
40204;SDS011;26963;42.666;23.366;2022-11-15T12:28:25;66.50;;;45.75;;
40204;SDS011;26963;42.666;23.366;2022-11-15T12:31:11;60.58;;;43.80;;
40204;SDS011;26963;42.666;23.366;2022-11-15T12:33:39;62.08;;;45.72;;
40204;SDS011;26963;42.666;23.366;2022-11-15T12:36:10;60.00;;;41.67;;
40204;SDS011;26963;42.666;23.366;2022-11-15T12:39:01;59.88;;;42.35;;
40204;SDS011;26963;42.666;23.366;2022-11-15T12:41:33;60.72;;;43.85;;
40204;SDS011;26963;42.666;23.366;2022-11-15T12:44:00;56.78;;;42.80;;
40204;SDS011;26963;42.666;23.366;2022-11-15T12:48:55;60.75;;;43.58;;
40204;SDS011;26963;42.666;23.366;2022-11-15T12:52:07;54.50;;;40.97;;
40204;SDS011;26963;42.666;23.366;2022-11-15T13:02:21;57.95;;;40.58;;
40204;SDS011;26963;42.666;23.366;2022-11-15T13:04:49;58.28;;;43.13;;
40204;SDS011;26963;42.666;23.366;2022-11-15T13:12:58;58.35;;;41.70;;
40204;SDS011;26963;42.666;23.366;2022-11-15T13:15:43;58.58;;;43.03;;
40204;SDS011;26963;42.666;23.366;2022-11-15T13:18:29;59.80;;;43.50;;
40204;SDS011;26963;42.666;23.366;2022-11-15T13:20:59;57.65;;;41.70;;
40204;SDS011;26963;42.666;23.366;2022-11-15T13:23:25;61.83;;;43.50;;
40204;SDS011;26963;42.666;23.366;2022-11-15T13:28:20;63.80;;;43.45;;
40204;SDS011;26963;42.666;23.366;2022-11-15T13:33:19;67.53;;;44.03;;
40204;SDS011;26963;42.666;23.366;2022-11-15T13:35:48;64.70;;;44.38;;
40204;SDS011;26963;42.666;23.366;2022-11-15T13:38:18;61.58;;;45.28;;
40204;SDS011;26963;42.666;23.366;2022-11-15T13:40:52;63.83;;;44.33;;
40204;SDS011;26963;42.666;23.366;2022-11-15T13:46:03;62.58;;;45.58;;
40204;SDS011;26963;42.666;23.366;2022-11-15T13:48:51;64.13;;;42.97;;
40204;SDS011;26963;42.666;23.366;2022-11-15T13:56:48;65.38;;;45.58;;
40204;SDS011;26963;42.666;23.366;2022-11-15T13:59:25;69.93;;;46.70;;
40204;SDS011;26963;42.666;23.366;2022-11-15T14:01:51;63.33;;;46.90;;
40204;SDS011;26963;42.666;23.366;2022-11-15T14:04:18;67.38;;;47.92;;
40204;SDS011;26963;42.666;23.366;2022-11-15T14:06:51;69.60;;;47.92;;
40204;SDS011;26963;42.666;23.366;2022-11-15T14:09:30;75.90;;;49.05;;
40204;SDS011;26963;42.666;23.366;2022-11-15T14:17:51;69.78;;;49.80;;
40204;SDS011;26963;42.666;23.366;2022-11-15T14:20:25;75.70;;;47.65;;
40204;SDS011;26963;42.666;23.366;2022-11-15T14:22:53;76.10;;;49.47;;
40204;SDS011;26963;42.666;23.366;2022-11-15T14:25:21;79.03;;;53.63;;
40204;SDS011;26963;42.666;23.366;2022-11-15T14:30:32;92.55;;;62.53;;
40204;SDS011;26963;42.666;23.366;2022-11-15T14:32:58;92.45;;;61.90;;
40204;SDS011;26963;42.666;23.366;2022-11-15T14:35:24;93.65;;;63.58;;
40204;SDS011;26963;42.666;23.366;2022-11-15T14:37:49;94.55;;;63.67;;
40204;SDS011;26963;42.666;23.366;2022-11-15T14:40:16;97.28;;;64.20;;
40204;SDS011;26963;42.666;23.366;2022-11-15T14:42:44;93.30;;;60.80;;
40204;SDS011;26963;42.666;23.366;2022-11-15T14:45:14;86.15;;;59.17;;
40204;SDS011;26963;42.666;23.366;2022-11-15T14:47:41;83.93;;;58.63;;
40204;SDS011;26963;42.666;23.366;2022-11-15T14:50:13;90.38;;;59.97;;
40204;SDS011;26963;42.666;23.366;2022-11-15T14:52:43;86.78;;;59.17;;
40204;SDS011;26963;42.666;23.366;2022-11-15T14:55:11;88.88;;;56.75;;
40204;SDS011;26963;42.666;23.366;2022-11-15T14:57:46;84.90;;;57.15;;
40204;SDS011;26963;42.666;23.366;2022-11-15T15:00:11;81.75;;;54.47;;
40204;SDS011;26963;42.666;23.366;2022-11-15T15:02:38;80.68;;;54.08;;
40204;SDS011;26963;42.666;23.366;2022-11-15T15:05:15;75.53;;;54.17;;
40204;SDS011;26963;42.666;23.366;2022-11-15T15:07:45;83.65;;;56.95;;
40204;SDS011;26963;42.666;23.366;2022-11-15T15:10:12;81.30;;;57.22;;
40204;SDS011;26963;42.666;23.366;2022-11-15T15:12:38;83.95;;;57.10;;
40204;SDS011;26963;42.666;23.366;2022-11-15T15:15:04;84.53;;;55.38;;
40204;SDS011;26963;42.666;23.366;2022-11-15T15:17:30;83.85;;;58.00;;
40204;SDS011;26963;42.666;23.366;2022-11-15T15:19:56;79.32;;;55.15;;
40204;SDS011;26963;42.666;23.366;2022-11-15T15:22:21;86.57;;;58.15;;
40204;SDS011;26963;42.666;23.366;2022-11-15T15:24:50;88.78;;;58.05;;
40204;SDS011;26963;42.666;23.366;2022-11-15T15:27:16;86.10;;;59.38;;
40204;SDS011;26963;42.666;23.366;2022-11-15T15:29:41;85.78;;;58.42;;
40204;SDS011;26963;42.666;23.366;2022-11-15T15:32:07;84.28;;;57.17;;
40204;SDS011;26963;42.666;23.366;2022-11-15T15:34:34;84.60;;;56.53;;
40204;SDS011;26963;42.666;23.366;2022-11-15T15:37:32;80.07;;;57.45;;
40204;SDS011;26963;42.666;23.366;2022-11-15T15:39:51;83.00;;;58.72;;
40204;SDS011;26963;42.666;23.366;2022-11-15T15:42:19;90.72;;;58.53;;
40204;SDS011;26963;42.666;23.366;2022-11-15T15:44:45;85.32;;;56.60;;
40204;SDS011;26963;42.666;23.366;2022-11-15T15:47:16;93.90;;;60.08;;
40204;SDS011;26963;42.666;23.366;2022-11-15T15:49:44;88.22;;;57.85;;
40204;SDS011;26963;42.666;23.366;2022-11-15T15:52:09;98.13;;;64.07;;
40204;SDS011;26963;42.666;23.366;2022-11-15T15:54:35;92.25;;;58.28;;
40204;SDS011;26963;42.666;23.366;2022-11-15T15:57:00;92.95;;;60.60;;
40204;SDS011;26963;42.666;23.366;2022-11-15T15:59:26;84.05;;;57.75;;
40204;SDS011;26963;42.666;23.366;2022-11-15T16:01:52;89.25;;;59.63;;
40204;SDS011;26963;42.666;23.366;2022-11-15T16:04:17;86.55;;;62.03;;
40204;SDS011;26963;42.666;23.366;2022-11-15T16:06:43;94.85;;;67.63;;
40204;SDS011;26963;42.666;23.366;2022-11-15T16:09:12;99.78;;;69.75;;
40204;SDS011;26963;42.666;23.366;2022-11-15T16:11:40;110.30;;;75.97;;
40204;SDS011;26963;42.666;23.366;2022-11-15T16:14:07;103.95;;;78.78;;
40204;SDS011;26963;42.666;23.366;2022-11-15T16:16:33;108.07;;;78.43;;
40204;SDS011;26963;42.666;23.366;2022-11-15T16:19:00;95.80;;;67.50;;
40204;SDS011;26963;42.666;23.366;2022-11-15T16:21:28;92.75;;;62.75;;
40204;SDS011;26963;42.666;23.366;2022-11-15T16:23:53;92.80;;;62.47;;
40204;SDS011;26963;42.666;23.366;2022-11-15T16:26:21;94.15;;;63.25;;
40204;SDS011;26963;42.666;23.366;2022-11-15T16:28:47;98.72;;;67.18;;
40204;SDS011;26963;42.666;23.366;2022-11-15T16:31:13;117.50;;;80.18;;
40204;SDS011;26963;42.666;23.366;2022-11-15T16:33:39;116.78;;;81.38;;
40204;SDS011;26963;42.666;23.366;2022-11-15T16:36:06;116.65;;;83.97;;